Time;durP1;ratioP1;P1;durP2;ratioP2;P2;SDS_P1;SDS_P2;PMS_P1;PMS_P2;Temp;Humidity;BMP_temperature;BMP_pressure;BME280_temperature;BME280_humidity;BME280_pressure;Samples;Min_cycle;Max_cycle;Signal;HPM_P1;HPM_P2
2022/11/11 00:02:22;;;;;;;2.42;1.25;;;;;;;18.98;53.53;102683.63;5084610;28;20082;-60
2022/11/11 00:04:47;;;;;;;4.07;1.60;;;;;;;18.97;53.60;102680.06;5084065;28;20020;-59
2022/11/11 00:07:12;;;;;;;3.25;1.60;;;;;;;18.97;53.90;102688.16;5083678;28;20039;-60
2022/11/11 00:09:37;;;;;;;3.35;1.35;;;;;;;18.96;53.80;102696.38;5084280;28;20044;-60
2022/11/11 00:12:03;;;;;;;2.63;1.65;;;;;;;18.95;53.56;102690.16;5084001;28;20128;-60
2022/11/11 00:14:28;;;;;;;3.20;1.50;;;;;;;18.95;53.84;102684.75;5079474;28;20087;-60
2022/11/11 00:25:08;;;;;;;2.60;1.13;;;;;;;18.94;53.86;102707.28;5063926;28;20154;-59
2022/11/11 00:27:34;;;;;;;2.22;1.50;;;;;;;18.94;53.84;102703.72;5064018;28;20051;-59
2022/11/11 00:29:59;;;;;;;2.97;1.40;;;;;;;18.88;53.84;102696.16;5063549;28;20025;-59
2022/11/11 00:32:29;;;;;;;2.25;1.30;;;;;;;18.91;54.01;102704.00;5064040;28;20032;-58
2022/11/11 00:37:42;;;;;;;3.15;1.40;;;;;;;18.92;53.65;102717.34;5063627;28;20099;-58
2022/11/11 00:40:08;;;;;;;2.85;1.50;;;;;;;18.92;53.59;102713.78;5049776;28;20063;-58
2022/11/11 00:42:33;;;;;;;2.40;1.20;;;;;;;18.91;53.86;102709.38;5083812;28;20366;-59
2022/11/11 00:44:59;;;;;;;1.77;1.23;;;;;;;18.92;53.84;102711.09;5071346;28;20065;-59
2022/11/11 00:52:58;;;;;;;1.92;1.52;;;;;;;18.82;53.63;102685.84;5063424;28;20080;-60
2022/11/11 00:55:23;;;;;;;2.97;1.90;;;;;;;18.85;53.91;102688.31;5063372;28;20775;-60
2022/11/11 00:57:48;;;;;;;2.38;1.48;;;;;;;18.88;53.84;102690.75;5063654;28;20078;-60
2022/11/11 01:00:14;;;;;;;2.47;1.23;;;;;;;18.77;53.78;102680.84;5063292;28;20189;-60
2022/11/11 01:02:39;;;;;;;2.60;1.67;;;;;;;18.81;53.52;102687.69;5063513;28;20017;-60
2022/11/11 01:05:04;;;;;;;2.05;1.50;;;;;;;18.86;53.85;102700.78;5045125;28;20029;-60
2022/11/11 01:07:30;;;;;;;2.80;1.50;;;;;;;18.88;54.02;102707.78;5076397;28;20093;-59
2022/11/11 01:09:55;;;;;;;2.03;1.50;;;;;;;18.87;53.93;102695.31;5083459;28;20436;-60
2022/11/11 01:12:20;;;;;;;2.03;1.20;;;;;;;18.87;53.99;102697.16;5083372;28;20028;-60
2022/11/11 01:14:46;;;;;;;3.42;1.77;;;;;;;18.84;53.69;102692.84;5070939;28;20059;-60
2022/11/11 01:17:11;;;;;;;5.03;1.90;;;;;;;18.84;53.69;102692.00;5063044;28;20525;-59
2022/11/11 01:19:36;;;;;;;2.30;1.50;;;;;;;18.87;53.87;102697.16;5063114;28;20041;-59
2022/11/11 01:22:01;;;;;;;2.05;1.70;;;;;;;18.85;53.49;102697.25;5062499;28;20048;-60
2022/11/11 01:24:27;;;;;;;1.88;1.67;;;;;;;18.84;53.66;102700.94;5063160;28;20029;-59
2022/11/11 01:26:52;;;;;;;3.20;1.63;;;;;;;18.85;53.91;102694.56;5063142;28;20048;-59
2022/11/11 01:29:17;;;;;;;4.30;1.67;;;;;;;18.54;53.66;102649.50;5063165;28;20035;-60
2022/11/11 01:31:43;;;;;;;1.77;1.30;;;;;;;18.83;53.74;102703.75;5065845;28;20080;-59
2022/11/11 01:34:08;;;;;;;2.50;1.40;;;;;;;18.84;53.70;102706.31;5066617;28;20033;-59
2022/11/11 01:36:33;;;;;;;2.63;1.73;;;;;;;18.83;53.67;102712.69;5066595;28;20024;-60
2022/11/11 01:38:59;;;;;;;2.25;1.50;;;;;;;18.83;53.57;102710.00;5067030;28;20032;-60
2022/11/11 01:41:37;;;;;;;2.08;1.55;;;;;;;18.84;54.05;102718.94;5066970;28;20044;-60
2022/11/11 01:44:11;;;;;;;1.70;1.40;;;;;;;18.83;53.84;102718.09;5066926;28;20025;-60
2022/11/11 01:46:44;;;;;;;1.67;1.30;;;;;;;18.83;54.04;102720.78;5066585;28;20096;-60
2022/11/11 01:49:21;;;;;;;3.15;1.80;;;;;;;18.82;53.86;102718.19;5066866;28;20032;-60
2022/11/11 01:52:00;;;;;;;1.52;1.25;;;;;;;18.82;53.34;102720.88;5064918;28;20029;-60
2022/11/11 01:54:30;;;;;;;1.92;1.42;;;;;;;18.83;53.97;102725.31;5066734;28;20024;-60
2022/11/11 01:57:32;;;;;;;2.33;1.63;;;;;;;18.81;53.91;102720.03;5048904;28;20020;-60
2022/11/11 02:00:03;;;;;;;2.25;1.63;;;;;;;18.81;54.06;102722.72;5063711;28;20635;-60
2022/11/11 02:02:44;;;;;;;3.22;1.90;;;;;;;18.80;53.68;102715.63;5048957;28;20040;-60
2022/11/11 02:08:00;;;;;;;2.33;1.67;;;;;;;18.77;53.88;102710.47;5083192;28;20044;-60
2022/11/11 02:10:25;;;;;;;;;;;;;;;18.80;54.00;102712.94;5068727;28;20377;-60
2022/11/11 02:15:35;;;;;;;3.08;1.70;;;;;;;18.59;54.00;102666.16;5065961;28;20060;-60
2022/11/11 02:18:00;;;;;;;2.22;1.67;;;;;;;18.78;53.73;102698.75;5048601;28;20017;-58
2022/11/11 02:20:27;;;;;;;1.95;1.50;;;;;;;18.76;53.87;102689.91;5047895;28;20452;-60
2022/11/11 02:23:00;;;;;;;2.30;1.60;;;;;;;18.77;53.52;102696.16;5047940;28;20071;-60
2022/11/11 02:25:28;;;;;;;2.03;1.70;;;;;;;18.77;54.07;102682.69;5048293;28;20035;-59
2022/11/11 02:27:57;;;;;;;3.58;1.80;;;;;;;18.67;53.71;102659.16;5048439;28;20036;-60
2022/11/11 02:30:23;;;;;;;1.73;1.63;;;;;;;18.75;54.32;102674.75;5048033;28;20032;-60
2022/11/11 02:32:49;;;;;;;2.80;1.70;;;;;;;18.75;54.04;102671.19;5066124;28;20033;-60
2022/11/11 02:35:21;;;;;;;2.88;2.03;;;;;;;18.75;53.70;102680.13;5065856;28;20028;-60
2022/11/11 02:37:49;;;;;;;3.97;2.03;;;;;;;18.75;54.03;102680.13;5066646;28;20490;-61
2022/11/11 02:40:26;;;;;;;2.45;1.70;;;;;;;18.75;53.81;102674.75;5065871;28;20052;-59
2022/11/11 02:42:52;;;;;;;3.03;1.63;;;;;;;18.75;53.62;102674.75;5047259;28;20545;-59
2022/11/11 02:45:17;;;;;;;2.88;1.77;;;;;;;18.41;53.43;102615.47;5065494;28;20032;-58
2022/11/11 02:47:42;;;;;;;2.95;1.85;;;;;;;18.74;53.90;102670.34;5065746;28;20032;-60
2022/11/11 02:50:08;;;;;;;2.83;1.90;;;;;;;18.63;53.78;102656.84;5065431;28;20024;-60
2022/11/11 02:52:33;;;;;;;2.47;1.63;;;;;;;18.72;53.99;102664.19;5065210;28;20021;-61
2022/11/11 02:54:59;;;;;;;2.47;1.48;;;;;;;18.75;53.78;102676.56;5065647;28;20029;-60
2022/11/11 02:57:24;;;;;;;2.55;1.88;;;;;;;18.73;53.71;102669.47;5065739;28;20033;-61
2022/11/11 02:59:50;;;;;;;1.77;1.67;;;;;;;18.73;53.63;102672.19;5065450;28;20405;-60
2022/11/11 03:02:15;;;;;;;2.55;2.00;;;;;;;18.73;53.56;102665.91;5065462;28;20115;-60
2022/11/11 03:04:40;;;;;;;2.40;1.80;;;;;;;18.73;53.36;102668.59;5065267;28;20036;-61
2022/11/11 03:07:05;;;;;;;3.67;2.03;;;;;;;18.73;53.84;102668.59;5075389;28;20054;-59
2022/11/11 03:09:31;;;;;;;2.63;2.15;;;;;;;18.72;53.52;102681.22;5085553;28;20028;-60
2022/11/11 03:11:56;;;;;;;2.10;1.70;;;;;;;18.72;53.79;102680.38;5085136;28;20152;-60
2022/11/11 03:14:22;;;;;;;2.75;1.90;;;;;;;18.69;53.81;102680.56;5085115;28;20029;-60
2022/11/11 03:19:31;;;;;;;1.60;1.50;;;;;;;18.71;53.84;102701.06;5084956;28;20119;-60
2022/11/11 03:21:57;;;;;;;2.92;1.98;;;;;;;18.71;53.49;102697.53;5084437;28;20017;-60
2022/11/11 03:24:23;;;;;;;2.70;2.00;;;;;;;18.70;53.47;102701.19;5085164;28;20032;-59
2022/11/11 03:26:48;;;;;;;2.33;1.80;;;;;;;18.69;53.78;102700.34;5085009;28;20105;-60
2022/11/11 03:29:13;;;;;;;2.08;1.73;;;;;;;18.69;54.08;102705.75;5084973;28;20084;-60
2022/11/11 03:31:39;;;;;;;2.65;1.90;;;;;;;18.69;53.81;102696.75;5085037;28;20024;-60
2022/11/11 03:34:19;;;;;;;1.90;1.65;;;;;;;18.66;53.48;102692.47;5084828;28;20451;-60
2022/11/11 03:39:29;;;;;;;3.75;2.50;;;;;;;18.69;53.43;102699.44;5084745;28;20035;-60
2022/11/11 03:41:55;;;;;;;2.85;2.05;;;;;;;18.68;53.77;102703.13;5084459;28;20044;-60
2022/11/11 03:44:21;;;;;;;3.15;2.03;;;;;;;18.54;53.44;102682.69;5084505;28;20038;-60
2022/11/11 03:46:46;;;;;;;2.70;2.15;;;;;;;18.67;53.43;102702.25;5084233;28;20052;-60
2022/11/11 03:49:11;;;;;;;2.63;2.08;;;;;;;18.66;53.74;102700.56;5084304;28;20024;-60
2022/11/11 03:51:36;;;;;;;2.97;1.77;;;;;;;18.67;53.70;102701.41;5083872;28;20039;-60
2022/11/11 03:54:02;;;;;;;2.05;1.75;;;;;;;18.66;53.84;102694.31;5084476;28;20040;-60
2022/11/11 03:56:27;;;;;;;2.80;1.90;;;;;;;18.65;53.57;102690.75;5084371;28;20033;-60
2022/11/11 03:58:52;;;;;;;3.53;2.28;;;;;;;18.66;53.44;102697.00;5084524;28;20396;-60
2022/11/11 04:12:13;;;;;;;3.65;2.30;;;;;;;18.64;53.83;102707.03;5084232;28;20036;-60
2022/11/11 04:17:22;;;;;;;3.35;2.20;;;;;;;18.62;53.47;102701.78;5083983;28;20044;-61
2022/11/11 04:22:32;;;;;;;3.83;2.03;;;;;;;18.62;53.46;102707.16;5083644;28;20097;-60
2022/11/11 04:27:40;;;;;;;2.30;2.10;;;;;;;18.62;53.55;102701.78;5084054;28;20234;-60
2022/11/11 04:30:06;;;;;;;2.08;1.80;;;;;;;18.61;53.40;102701.91;5083780;28;20025;-60
2022/11/11 04:32:34;;;;;;;2.80;2.00;;;;;;;18.61;53.75;102696.53;5084080;28;20024;-60
2022/11/11 04:35:01;;;;;;;2.50;2.30;;;;;;;18.61;53.85;102701.91;5082604;28;20542;-60
2022/11/11 04:37:30;;;;;;;2.58;2.00;;;;;;;18.60;53.42;102701.03;5083291;28;20028;-60
2022/11/11 04:42:39;;;;;;;3.33;2.05;;;;;;;18.60;53.60;102700.19;5083809;28;20110;-60
2022/11/11 04:47:52;;;;;;;3.40;2.05;;;;;;;18.60;53.56;102702.88;5068558;28;20078;-61
2022/11/11 04:50:17;;;;;;;1.83;1.73;;;;;;;18.59;53.73;102706.56;5083300;28;20020;-60
2022/11/11 04:52:42;;;;;;;2.50;1.80;;;;;;;18.59;53.40;102695.78;5083095;28;20039;-61
2022/11/11 04:57:51;;;;;;;3.13;2.25;;;;;;;18.55;53.80;102691.63;5083646;28;20163;-61
2022/11/11 05:00:17;;;;;;;4.18;2.30;;;;;;;18.57;53.44;102695.91;5083199;28;20062;-60
2022/11/11 05:08:54;;;;;;;5.82;2.80;;;;;;;18.57;53.35;102681.59;5062721;28;20039;-60
2022/11/11 05:10:58;;;;;;;2.83;2.03;;;;;;;18.56;53.35;102674.47;5083190;28;20066;-60
2022/11/11 05:21:41;;;;;;;2.15;1.85;;;;;;;18.52;53.38;102664.91;5082637;28;20613;-60
2022/11/11 05:26:50;;;;;;;2.60;2.17;;;;;;;18.29;53.37;102623.69;5083502;28;20450;-60
2022/11/11 05:29:15;;;;;;;2.70;2.22;;;;;;;18.49;53.62;102668.72;5083168;28;20020;-61
2022/11/11 05:31:40;;;;;;;2.88;1.92;;;;;;;18.54;53.76;102681.81;5081921;28;20554;-61
2022/11/11 05:34:06;;;;;;;2.40;2.08;;;;;;;18.53;52.94;102691.75;5074613;28;20116;-60
2022/11/11 05:36:31;;;;;;;3.25;2.00;;;;;;;18.52;53.81;102683.78;5062506;28;20036;-60
2022/11/11 05:38:56;;;;;;;3.33;2.00;;;;;;;18.52;53.67;102690.03;5063322;28;20052;-60
2022/11/11 05:41:21;;;;;;;2.13;1.80;;;;;;;18.53;53.73;102699.81;5062841;28;20017;-61
2022/11/11 05:43:47;;;;;;;2.88;2.13;;;;;;;18.54;53.39;102703.38;5062965;28;20477;-61
2022/11/11 05:46:12;;;;;;;2.45;2.13;;;;;;;18.53;53.51;102709.75;5062661;28;20064;-60
2022/11/11 05:49:13;;;;;;;3.83;2.20;;;;;;;18.42;53.38;102686.34;5063026;28;20088;-61
2022/11/11 05:51:26;;;;;;;2.50;2.10;;;;;;;18.53;53.67;102701.66;5061997;28;20060;-59
2022/11/11 05:53:52;;;;;;;2.70;1.92;;;;;;;18.51;53.39;102709.00;5063034;28;20036;-60
2022/11/11 05:56:17;;;;;;;2.88;2.17;;;;;;;18.52;53.45;102713.41;5062745;28;20033;-60
2022/11/11 05:58:42;;;;;;;2.20;2.00;;;;;;;18.49;53.17;102715.38;5063049;28;20032;-60
2022/11/11 06:01:08;;;;;;;2.20;1.88;;;;;;;18.49;53.36;102718.06;5062688;28;20025;-59
2022/11/11 06:03:33;;;;;;;4.50;2.00;;;;;;;18.50;53.39;102729.69;5068533;28;20534;-59
2022/11/11 06:05:58;;;;;;;3.55;2.30;;;;;;;18.50;53.21;102737.78;5081998;28;20056;-59
2022/11/11 06:08:23;;;;;;;3.40;2.35;;;;;;;18.49;53.69;102730.69;5080297;28;20056;-60
2022/11/11 06:10:50;;;;;;;2.38;1.63;;;;;;;18.48;53.55;102737.91;5082538;28;20029;-58
2022/11/11 06:13:15;;;;;;;2.25;1.80;;;;;;;18.32;53.13;102723.94;5082997;28;20473;-59
2022/11/11 06:15:40;;;;;;;2.63;2.25;;;;;;;18.48;53.43;102748.69;5082389;28;20039;-59
2022/11/11 06:18:06;;;;;;;2.95;1.80;;;;;;;18.48;53.61;102755.91;5084265;28;20559;-59
2022/11/11 06:20:34;;;;;;;2.78;2.00;;;;;;;18.41;53.46;102750.13;5085997;28;20082;-60
2022/11/11 06:23:00;;;;;;;3.15;1.92;;;;;;;18.38;53.56;102747.69;5085708;28;20017;-60
2022/11/11 06:28:10;;;;;;;2.95;2.35;;;;;;;18.47;52.88;102762.25;5085225;28;20035;-60
2022/11/11 06:30:36;;;;;;;3.38;2.08;;;;;;;18.47;53.34;102765.81;5085893;28;20024;-60
2022/11/11 06:33:01;;;;;;;2.97;2.13;;;;;;;18.43;53.33;102758.09;5084461;28;20530;-60
2022/11/11 06:35:26;;;;;;;3.25;2.35;;;;;;;18.42;53.57;102749.16;5065362;28;20523;-60
2022/11/11 06:37:52;;;;;;;1.73;1.60;;;;;;;18.39;53.60;102760.19;5065382;28;20036;-61
2022/11/11 06:40:17;;;;;;;2.33;2.00;;;;;;;18.43;53.43;102763.47;5065804;28;20035;-61
2022/11/11 06:42:43;;;;;;;3.08;2.45;;;;;;;18.46;53.69;102758.69;5065921;28;20122;-61
2022/11/11 06:45:08;;;;;;;3.30;2.10;;;;;;;18.43;53.50;102756.25;5065448;28;20025;-60
2022/11/11 06:47:34;;;;;;;3.13;2.47;;;;;;;18.46;53.48;102771.31;5065587;28;20028;-61
2022/11/11 06:49:59;;;;;;;3.58;2.42;;;;;;;18.45;53.57;102767.78;5065627;28;20454;-59
2022/11/11 06:52:24;;;;;;;2.88;2.03;;;;;;;18.46;53.65;102774.00;5065331;28;20025;-60
2022/11/11 06:54:49;;;;;;;2.67;1.90;;;;;;;18.46;53.43;102784.78;5065599;28;20024;-60
2022/11/11 06:57:15;;;;;;;2.50;2.30;;;;;;;18.45;53.45;102775.84;5065725;28;20039;-60
2022/11/11 06:59:40;;;;;;;4.93;1.98;;;;;;;18.45;53.47;102772.31;5065435;28;20061;-59
2022/11/11 07:02:09;;;;;;;2.60;1.92;;;;;;;18.42;53.34;102777.91;5065274;28;20167;-59
2022/11/11 07:04:34;;;;;;;;;;;;;;;18.46;53.49;102777.56;5047786;28;20033;-59
2022/11/11 07:06:59;;;;;;;2.78;1.80;;;;;;;18.47;53.39;102778.41;5055996;28;19972;-59
2022/11/11 07:09:26;;;;;;;2.47;1.92;;;;;;;18.45;53.57;102788.47;5085384;28;20032;-59
2022/11/11 07:11:52;;;;;;;2.65;1.80;;;;;;;18.45;53.53;102781.25;5067317;28;20458;-60
2022/11/11 07:14:17;;;;;;;2.42;1.80;;;;;;;18.41;53.60;102774.38;5085401;28;20016;-60
2022/11/11 07:16:42;;;;;;;2.05;1.77;;;;;;;18.45;53.68;102786.63;5084950;28;20058;-60
2022/11/11 07:19:07;;;;;;;1.90;1.70;;;;;;;18.44;53.44;102787.59;5084862;28;20012;-59
2022/11/11 07:21:32;;;;;;;1.73;1.63;;;;;;;18.46;53.57;102790.16;5084599;28;20051;-60
2022/11/11 07:23:58;;;;;;;2.05;1.80;;;;;;;18.46;53.58;102780.25;5083736;28;20029;-61
2022/11/11 07:26:23;;;;;;;2.33;1.90;;;;;;;18.47;53.75;102795.44;5085125;28;20039;-60
2022/11/11 07:28:50;;;;;;;2.22;1.92;;;;;;;18.47;53.65;102789.19;5084733;28;20107;-60
2022/11/11 07:31:15;;;;;;;2.85;2.20;;;;;;;18.48;53.71;102804.41;5084928;28;20412;-60
2022/11/11 07:33:40;;;;;;;3.13;1.88;;;;;;;18.46;53.50;102798.25;5076018;28;20033;-60
2022/11/11 07:36:05;;;;;;;2.50;1.80;;;;;;;18.47;53.45;102805.34;5064360;28;20025;-59
2022/11/11 07:38:31;;;;;;;2.00;1.80;;;;;;;18.48;53.74;102812.47;5064521;28;20056;-61
2022/11/11 07:40:56;;;;;;;2.90;2.05;;;;;;;18.48;53.31;102815.16;5064423;28;20021;-58
2022/11/11 07:43:23;;;;;;;2.38;1.80;;;;;;;18.48;53.60;102825.94;5064615;28;20089;-59
2022/11/11 07:45:48;;;;;;;2.30;1.90;;;;;;;18.47;53.28;102825.06;5064175;28;20021;-59
2022/11/11 07:48:13;;;;;;;2.35;1.85;;;;;;;18.44;53.30;102819.06;5064633;28;20025;-60
2022/11/11 07:50:39;;;;;;;2.83;1.80;;;;;;;18.38;53.37;102822.22;5064071;28;20063;-60
2022/11/11 07:53:04;;;;;;;2.60;2.03;;;;;;;18.48;53.61;102834.03;5064203;28;20025;-60
2022/11/11 07:55:29;;;;;;;2.53;1.83;;;;;;;18.47;53.32;102835.84;5064478;28;20028;-59
2022/11/11 07:57:54;;;;;;;2.97;1.70;;;;;;;18.34;53.41;102812.66;5064533;28;20427;-60
2022/11/11 08:00:20;;;;;;;3.20;1.90;;;;;;;18.49;53.27;102841.13;5063186;28;20037;-59
2022/11/11 08:02:46;;;;;;;2.15;1.50;;;;;;;18.49;53.60;102838.44;5066073;28;20077;-60
2022/11/11 08:05:11;;;;;;;3.67;2.28;;;;;;;18.50;53.54;102837.44;5071478;28;20032;-60
2022/11/11 08:07:37;;;;;;;2.55;2.10;;;;;;;18.51;53.73;102841.00;5083884;28;20063;-59
2022/11/11 08:10:02;;;;;;;2.30;2.00;;;;;;;18.32;53.18;102807.41;5084101;28;20032;-60
2022/11/11 08:15:11;;;;;;;2.42;1.95;;;;;;;18.52;53.61;102837.31;5063893;28;20163;-60
2022/11/11 08:17:40;;;;;;;1.88;1.70;;;;;;;18.53;53.21;102844.44;5046035;28;20029;-59
2022/11/11 08:20:07;;;;;;;2.72;2.05;;;;;;;18.50;53.32;102840.13;5063322;28;20120;-59
2022/11/11 08:22:40;;;;;;;2.72;1.73;;;;;;;18.47;53.18;102840.38;5063778;28;20733;-60
2022/11/11 08:25:12;;;;;;;2.45;1.70;;;;;;;18.30;53.13;102811.19;5063897;28;20060;-60
2022/11/11 08:27:37;;;;;;;2.03;1.80;;;;;;;18.55;53.18;102850.56;5064976;28;20051;-60
2022/11/11 08:30:05;;;;;;;4.28;2.00;;;;;;;18.55;53.56;102850.56;5075916;28;20064;-60
2022/11/11 08:32:30;;;;;;;3.00;2.00;;;;;;;18.55;53.06;102848.72;5084028;28;20063;-60
2022/11/11 08:34:56;;;;;;;2.35;2.00;;;;;;;18.54;53.07;102847.00;5083495;28;20025;-56
2022/11/11 08:37:21;;;;;;;3.03;2.00;;;;;;;18.57;53.39;102860.25;5083502;28;20024;-60
2022/11/11 08:39:46;;;;;;;2.05;1.85;;;;;;;18.57;53.03;102857.53;5083183;28;20515;-60
2022/11/11 08:42:12;;;;;;;2.00;1.80;;;;;;;18.57;53.04;102860.25;5083063;28;20028;-60
2022/11/11 08:44:37;;;;;;;3.17;1.90;;;;;;;18.58;53.01;102864.66;5083569;28;20050;-60
2022/11/11 08:47:02;;;;;;;2.22;1.63;;;;;;;18.59;53.26;102860.13;5083388;28;20089;-60
2022/11/11 08:49:28;;;;;;;2.22;1.80;;;;;;;18.60;53.25;102862.66;5083400;28;20106;-59
2022/11/11 08:51:53;;;;;;;3.33;2.28;;;;;;;18.62;53.15;102867.97;5082868;28;20039;-60
2022/11/11 08:54:18;;;;;;;2.40;1.77;;;;;;;18.52;53.19;102848.97;5083815;28;20032;-59
2022/11/11 08:56:43;;;;;;;2.33;2.13;;;;;;;18.63;53.14;102873.22;5080767;28;20032;-59
2022/11/11 08:59:09;;;;;;;3.53;2.00;;;;;;;18.65;53.05;102871.28;5063366;28;20043;-60
2022/11/11 09:01:35;;;;;;;1.98;1.80;;;;;;;18.65;53.11;102873.97;5063350;28;20077;-60
2022/11/11 09:04:00;;;;;;;2.92;2.00;;;;;;;18.65;52.67;102867.72;5063292;28;20032;-58
2022/11/11 09:06:27;;;;;;;1.48;1.38;;;;;;;18.44;53.11;102844.16;5066824;28;20021;-58
2022/11/11 09:08:52;;;;;;;2.05;1.65;;;;;;;18.45;53.03;102850.41;5083443;28;20043;-59
2022/11/11 09:11:17;;;;;;;2.10;1.83;;;;;;;18.69;52.55;102886.28;5083255;28;20480;-60
2022/11/11 09:13:42;;;;;;;2.20;2.00;;;;;;;18.70;52.70;102889.81;5083710;28;20106;-60
2022/11/11 09:16:08;;;;;;;2.55;1.70;;;;;;;18.68;52.87;102884.50;5082681;28;20033;-60
2022/11/11 09:18:34;;;;;;;2.33;2.05;;;;;;;18.75;52.69;102903.78;5083664;28;20031;-60
2022/11/11 09:20:59;;;;;;;2.78;2.03;;;;;;;18.75;52.75;102897.53;5081615;28;20056;-60
2022/11/11 09:23:25;;;;;;;2.33;1.77;;;;;;;18.78;52.78;102905.41;5082821;28;20674;-60
2022/11/11 09:25:50;;;;;;;2.97;2.05;;;;;;;18.78;52.81;102905.41;5083222;28;20036;-60
2022/11/11 09:28:15;;;;;;;2.25;1.90;;;;;;;18.82;52.72;102909.53;5067984;28;20044;-60
2022/11/11 09:30:41;;;;;;;3.47;1.92;;;;;;;18.84;52.54;102913.84;5062790;28;20097;-60
2022/11/11 09:33:06;;;;;;;2.40;2.20;;;;;;;18.85;52.66;102914.69;5063230;28;20136;-60
2022/11/11 09:35:32;;;;;;;3.33;2.30;;;;;;;18.87;52.57;102913.63;5068890;28;20048;-60
2022/11/11 09:38:00;;;;;;;2.17;1.80;;;;;;;18.90;52.62;102921.47;5082636;28;20032;-60
2022/11/11 09:40:41;;;;;;;2.38;1.80;;;;;;;18.93;52.21;102917.66;5083204;28;20028;-60
2022/11/11 09:43:25;;;;;;;3.05;1.60;;;;;;;18.98;52.42;102915.44;5083345;28;20025;-60
2022/11/11 09:46:42;;;;;;;2.08;1.88;;;;;;;19.00;52.25;102909.97;5082528;28;20040;-60
2022/11/11 09:49:19;;;;;;;3.28;1.85;;;;;;;19.04;52.04;102916.84;5027449;28;20047;-60
2022/11/11 09:52:06;;;;;;;3.47;1.98;;;;;;;19.06;52.06;102920.25;5082958;28;20025;-60
2022/11/11 09:54:44;;;;;;;2.55;2.00;;;;;;;19.05;52.02;102919.41;5087232;28;20043;-60
2022/11/11 09:57:37;;;;;;;2.88;2.05;;;;;;;19.11;52.04;102920.75;5059835;28;20039;-60
2022/11/11 10:00:15;;;;;;;2.38;2.17;;;;;;;19.14;51.70;102925.91;5048757;28;20029;-60
2022/11/11 10:02:45;;;;;;;2.27;1.83;;;;;;;19.17;51.70;102922.97;5049071;28;20017;-60
2022/11/11 10:05:17;;;;;;;2.83;2.00;;;;;;;19.18;51.95;102924.69;5048407;28;20021;-60
2022/11/11 10:07:44;;;;;;;1.90;1.70;;;;;;;19.20;51.70;102930.81;5063189;28;20040;-60
2022/11/11 10:10:13;;;;;;;2.22;1.90;;;;;;;19.17;51.93;102912.19;5086537;28;20085;-59
2022/11/11 10:12:43;;;;;;;5.03;2.60;;;;;;;19.22;51.75;102931.53;5086341;28;20017;-60
2022/11/11 10:15:13;;;;;;;2.92;2.05;;;;;;;19.23;51.61;102923.31;5085227;28;20021;-59
2022/11/11 10:17:52;;;;;;;2.47;2.10;;;;;;;19.25;51.81;102930.47;5086347;28;20207;-60
2022/11/11 10:20:31;;;;;;;;;;;;;;;19.26;51.58;102924.06;5086276;28;20044;-60
2022/11/11 10:23:04;;;;;;;3.35;1.92;;;;;;;19.26;51.75;102927.63;5085719;28;19991;-60
2022/11/11 10:25:30;;;;;;;3.42;2.10;;;;;;;19.27;51.84;102940.13;5084897;28;20028;-61
2022/11/11 10:27:58;;;;;;;3.15;2.35;;;;;;;19.27;51.94;102934.72;5085563;28;20043;-61
2022/11/11 10:30:26;;;;;;;2.13;1.88;;;;;;;19.27;51.99;102929.34;5068061;28;20028;-60
2022/11/11 10:33:01;;;;;;;2.10;1.70;;;;;;;19.29;51.90;102922.00;5066373;28;20092;-60
2022/11/11 10:35:29;;;;;;;2.97;2.10;;;;;;;19.28;52.02;102911.31;5068060;28;20024;-60
2022/11/11 10:38:09;;;;;;;3.22;1.92;;;;;;;19.31;51.62;102925.41;5067736;28;20021;-60
2022/11/11 10:40:39;;;;;;;2.08;1.83;;;;;;;19.32;51.83;102920.88;5085978;28;20028;-61
2022/11/11 10:43:16;;;;;;;3.00;1.90;;;;;;;19.32;51.71;102921.72;5086038;28;20107;-61
2022/11/11 10:45:51;;;;;;;2.75;2.03;;;;;;;19.32;51.84;102924.44;5050793;28;20024;-60
2022/11/11 10:48:25;;;;;;;2.83;2.05;;;;;;;19.23;51.93;102906.28;5068156;28;20028;-60
2022/11/11 10:50:52;;;;;;;2.25;2.00;;;;;;;19.33;52.03;102919.91;5085371;28;20028;-60
2022/11/11 10:53:39;;;;;;;2.45;2.00;;;;;;;19.38;51.70;102923.09;5085622;28;20092;-60
2022/11/11 10:56:18;;;;;;;3.70;2.00;;;;;;;19.40;51.94;102918.41;5084267;28;20029;-60
2022/11/11 10:58:57;;;;;;;2.35;2.13;;;;;;;19.41;51.77;102921.03;5048046;28;20075;-60
2022/11/11 11:01:52;;;;;;;3.42;2.30;;;;;;;19.44;51.57;102917.19;5047443;28;20611;-61
2022/11/11 11:04:25;;;;;;;2.28;1.60;;;;;;;19.45;51.97;102925.19;5060701;28;20045;-60
2022/11/11 11:06:51;;;;;;;1.90;1.70;;;;;;;19.46;51.77;102931.44;5072582;28;20036;-60
2022/11/11 11:09:35;;;;;;;3.10;2.10;;;;;;;19.48;52.12;102916.81;5067818;28;20032;-60
2022/11/11 11:12:31;;;;;;;2.35;1.73;;;;;;;19.50;51.77;102916.72;5085214;28;20088;-60
2022/11/11 11:15:01;;;;;;;2.33;1.90;;;;;;;19.44;52.01;102904.56;5060095;28;20041;-60
2022/11/11 11:17:36;;;;;;;2.00;1.58;;;;;;;19.52;51.78;102916.59;5047206;28;20032;-60
2022/11/11 11:20:12;;;;;;;2.17;1.83;;;;;;;19.53;51.80;102910.19;5046967;28;20048;-60
2022/11/11 11:22:50;;;;;;;1.83;1.70;;;;;;;19.52;52.11;102908.50;5064602;28;20401;-60
2022/11/11 11:25:16;;;;;;;2.40;2.05;;;;;;;19.56;51.79;102909.97;5065253;28;20080;-60
2022/11/11 11:27:41;;;;;;;1.90;1.65;;;;;;;19.57;52.05;102911.66;5073231;28;20070;-61
2022/11/11 11:30:15;;;;;;;3.28;1.70;;;;;;;19.58;51.90;102902.59;5064587;28;20496;-60
2022/11/11 11:32:43;;;;;;;2.47;1.90;;;;;;;19.59;52.25;102907.03;5065016;28;20084;-61
2022/11/11 11:35:09;;;;;;;2.22;1.80;;;;;;;19.61;52.26;102905.06;5064802;28;20678;-60
2022/11/11 11:37:48;;;;;;;1.75;1.55;;;;;;;19.62;51.83;102904.09;5064201;28;20021;-60
2022/11/11 11:40:13;;;;;;;;;;;;;;;19.64;52.08;102900.28;5065151;28;20088;-61
2022/11/11 11:42:39;;;;;;;2.53;1.90;;;;;;;19.60;51.95;102892.53;5049378;28;19927;-60
2022/11/11 11:45:30;;;;;;;2.08;1.70;;;;;;;19.66;52.07;102892.06;5084522;28;20038;-60
2022/11/11 11:48:32;;;;;;;1.73;1.60;;;;;;;19.68;51.89;102892.81;5084865;28;20127;-61
2022/11/11 11:51:10;;;;;;;2.13;1.40;;;;;;;19.68;52.00;102893.66;5066375;28;20025;-60
2022/11/11 11:53:59;;;;;;;2.95;1.80;;;;;;;19.72;51.83;102897.81;5066331;28;20050;-61
2022/11/11 11:56:35;;;;;;;3.08;1.73;;;;;;;19.74;52.09;102897.69;5066775;28;20036;-61
2022/11/11 11:59:09;;;;;;;1.63;1.50;;;;;;;19.74;52.00;102889.59;5066569;28;20095;-61
2022/11/11 12:01:46;;;;;;;1.92;1.58;;;;;;;19.78;51.99;102892.91;5084394;28;20024;-60
2022/11/11 12:04:20;;;;;;;2.13;1.50;;;;;;;19.78;51.77;102892.91;5084429;28;20038;-60
2022/11/11 12:07:07;;;;;;;3.45;2.10;;;;;;;19.79;51.82;102886.50;5083289;28;20630;-60
2022/11/11 12:10:19;;;;;;;1.55;1.40;;;;;;;19.40;52.11;102818.63;5083595;28;20031;-60
2022/11/11 12:13:06;;;;;;;2.25;1.75;;;;;;;19.84;51.70;102890.56;4967292;28;20031;-60
2022/11/11 12:16:20;;;;;;;1.77;1.63;;;;;;;19.66;51.77;102860.53;5000944;28;20034;-59
2022/11/11 12:18:56;;;;;;;2.78;1.83;;;;;;;19.85;52.12;102886.88;4958682;28;20050;-60
2022/11/11 12:21:26;;;;;;;2.10;1.90;;;;;;;19.85;51.82;102881.47;4982280;28;20050;-60
2022/11/11 12:24:03;;;;;;;1.73;1.60;;;;;;;19.87;51.91;102895.69;4982222;28;20038;-60
2022/11/11 12:26:40;;;;;;;1.75;1.50;;;;;;;19.88;51.92;102883.03;4982613;28;20049;-60
2022/11/11 12:29:27;;;;;;;3.00;1.60;;;;;;;19.84;52.02;102877.06;4982548;28;20042;-60
2022/11/11 12:32:06;;;;;;;1.95;1.63;;;;;;;19.91;51.77;102882.78;4982227;28;20818;-60
2022/11/11 12:35:09;;;;;;;1.70;1.58;;;;;;;19.93;52.08;102880.84;4982444;28;20053;-59
2022/11/11 12:37:53;;;;;;;1.88;1.60;;;;;;;19.94;51.77;102880.72;4969263;28;20031;-59
2022/11/11 12:40:24;;;;;;;1.88;1.50;;;;;;;19.95;52.05;102882.41;4946884;29;20039;-59
2022/11/11 12:43:06;;;;;;;3.55;2.00;;;;;;;19.96;52.06;102880.56;4962942;29;20030;-60
2022/11/11 12:45:38;;;;;;;1.83;1.42;;;;;;;19.96;52.01;102881.44;4950491;28;20756;-59
2022/11/11 12:48:30;;;;;;;1.45;1.25;;;;;;;19.98;52.22;102886.72;5022644;28;20085;-60
2022/11/11 12:51:27;;;;;;;1.52;1.42;;;;;;;19.99;52.00;102880.31;5023537;28;20542;-60
2022/11/11 12:54:19;;;;;;;1.38;1.27;;;;;;;19.98;51.95;102868.66;5022049;28;20030;-60
2022/11/11 12:56:58;;;;;;;2.92;1.55;;;;;;;20.00;52.24;102875.78;5022522;28;20045;-60